Carlton Acres, NC

10:38 AM EST on January 18, 2017 (GMT -0500)
MAS691 | | Change Station

Elev 593 ft 35.85 °N, 79.13 °W | Updated 22 minutes ago

Clear
Clear
64.0 °F
Feels Like 64.0 °F
N
1.0
Wind Variable Wind from NNW
Gusts 4.0 mph

Today
High -- | Low -- °F
--% Chance of Precip.
Yesterday
High -- | Low -- °F
Precip. -- in
Pressure 29.99 in
Visibility 10.0 miles
Clouds Clear
Dew Point 59 °F
Humidity 83%
Rainfall 0.04 in
Snow Depth Not available.
7:24 AM 5:29 PM
Waning Gibbous, 62% visible
METAR KIGX 181456Z AUTO 29009KT 10SM CLR 18/12 A3000 RMK AO2 SLP154 T01830122 53017
Pressure 29.99 in
Visibility 10.0 miles
Clouds Clear
Dew Point 59 °F
Humidity 83%
Rainfall 0.04 in
Snow Depth Not available.
7:24 AM 5:29 PM
Waning Gibbous, 62% visible
METAR KIGX 181456Z AUTO 29009KT 10SM CLR 18/12 A3000 RMK AO2 SLP154 T01830122 53017

Get Your Daily Forecast Email!

Thanks for signing up!

Be on the lookout for a verification email in your inbox.

You'll start receiving the daily forecast at 8 AM.

×

10-Day Weather Forecast

Almanac

Astronomy

Jan. 18, 2017 Rise Set
Actual Time
Civil Twilight
Nautical Twilight
Astronomical Twilight
Moon
Length of Visible Light
Length of Day
Tomorrow will be .
, % of the Moon is Illuminated

Today's Extremes

State Highs State Lows

Community

WunderPhotos

Upload Photos

1,962,540 photos uploaded!

WunderBlog® & News

Nearby

Air Quality

  Air Quality AQ Index Pollutant
Not available.

Snow Depth

Station Depth Elevation

Earthquake Activity

City Distance Mag. Time & Date
Minimum magnitude displayed is 2.5.

Coastal Water Temperatures

Place Temperature

Stations

Nearby Weather Stations

Station Location Temp. Windchill Dew Point Humidity Wind Precip. Elev Updated Type
                   

Watches & Warnings

There are currently no watches in effect.